Skip to main content

NOAA/GLERL Met Station at Muskegon, MI

Previous 3 Hours (2 minute increments)
See also Previous 5 Days (top of hour)
Jump down to Data
Switch to [English][Metric]
Zoom: Click and drag, Pan: shift-click and drag, Unzoom: double-click, Unzoom All






See also 1-day windrose plot


NOAA/GLERL Met Station at Muskegon, MI

Previous 3 Hours (2 minute increments)
See also Previous 5 Days (top of hour only)
Jump up to Graphs
Switch to [English][Metric]
                  Wind  Wind  Wind   Air   Dew   Rel     Sta   PAR
                   Spd   Gst   Dir  Temp    Pt   Hum    Pres uE/m2/
YYYY-MM-DD   EDT   m/s   m/s   deg     C     C     %      mb   sec
2024-07-22 16:50 -99.0 -99.0   -99  22.6  19.4  82.1  994.60  1481
2024-07-22 16:48 -99.0 -99.0   -99  22.5  19.5  83.1  994.60  1486
2024-07-22 16:46 -99.0 -99.0   -99  22.7  19.4  81.5  994.60  1490
2024-07-22 16:44 -99.0 -99.0   -99  22.8  19.6  81.8  994.60  1495
2024-07-22 16:42 -99.0 -99.0   -99  22.8  19.5  81.7  994.60  1501
2024-07-22 16:40 -99.0 -99.0   -99  22.8  19.4  81.1  994.80  1505
2024-07-22 16:38 -99.0 -99.0   -99  22.6  19.6  82.9  994.80  1508
2024-07-22 16:36 -99.0 -99.0   -99  22.7  19.5  82.0  994.80  1512
2024-07-22 16:34 -99.0 -99.0   -99  22.8  19.5  81.6  994.80  1517
2024-07-22 16:32 -99.0 -99.0   -99  22.7  19.5  82.1  994.80  1522
2024-07-22 16:30 -99.0 -99.0   -99  22.6  19.5  82.6  994.80  1524
2024-07-22 16:28 -99.0 -99.0   -99  22.5  19.4  82.2  994.80  1527
2024-07-22 16:26 -99.0 -99.0   -99  22.6  19.3  81.6  994.80  1527
2024-07-22 16:24 -99.0 -99.0   -99  22.7  19.4  81.7  994.80  1533
2024-07-22 16:22 -99.0 -99.0   -99  22.8  19.4  81.4  994.80  1541
2024-07-22 16:20 -99.0 -99.0   -99  22.8  19.4  81.3  994.80  1545
2024-07-22 16:18 -99.0 -99.0   -99  22.8  19.4  81.5  994.80  1549
2024-07-22 16:16 -99.0 -99.0   -99  22.7  19.4  81.2  994.90  1551
2024-07-22 16:14 -99.0 -99.0   -99  22.7  19.4  81.7  994.90  1552
2024-07-22 16:12 -99.0 -99.0   -99  22.9  19.6  81.2  994.80  1555
2024-07-22 16:10 -99.0 -99.0   -99  23.0  19.6  81.0  994.80  1556
2024-07-22 16:08 -99.0 -99.0   -99  23.0  19.4  80.3  994.90  1556
2024-07-22 16:06 -99.0 -99.0   -99  23.1  19.5  80.2  994.90  1558
2024-07-22 16:04 -99.0 -99.0   -99  23.1  19.6  81.0  994.90  1561
2024-07-22 16:02 -99.0 -99.0   -99  23.0  19.6  81.1  994.90  1562
2024-07-22 16:00 -99.0 -99.0   -99  23.0  19.6  81.4  995.00  1566
2024-07-22 15:58 -99.0 -99.0   -99  22.8  19.5  81.8  995.10  1567
2024-07-22 15:56 -99.0 -99.0   -99  22.7  19.6  82.3  995.10  1571
2024-07-22 15:54 -99.0 -99.0   -99  22.8  19.6  82.1  995.10  1575
2024-07-22 15:52 -99.0 -99.0   -99  22.9  19.6  81.7  995.10  1574
2024-07-22 15:50 -99.0 -99.0   -99  22.8  19.2  80.5  995.20  1576
2024-07-22 15:48 -99.0 -99.0   -99  22.8  19.4  81.2  995.20  1583
2024-07-22 15:46 -99.0 -99.0   -99  22.8  19.6  81.7  995.20  1592
2024-07-22 15:44 -99.0 -99.0   -99  22.9  19.6  81.6  995.20  1597
2024-07-22 15:42 -99.0 -99.0   -99  22.9  19.6  81.4  995.20  1595
2024-07-22 15:40 -99.0 -99.0   -99  22.8  19.6  81.7  995.20  1597
2024-07-22 15:38 -99.0 -99.0   -99  23.0  19.7  81.5  995.20  1600
2024-07-22 15:36 -99.0 -99.0   -99  23.0  19.6  81.1  995.20  1606
2024-07-22 15:34 -99.0 -99.0   -99  23.1  19.7  81.2  995.20  1607
2024-07-22 15:32 -99.0 -99.0   -99  22.9  19.5  80.9  995.20  1608
2024-07-22 15:30 -99.0 -99.0   -99  23.0  19.6  81.4  995.20  1610
2024-07-22 15:28 -99.0 -99.0   -99  23.0  19.4  80.4  995.20  1610
2024-07-22 15:26 -99.0 -99.0   -99  23.2  19.5  79.4  995.20  1609
2024-07-22 15:24 -99.0 -99.0   -99  23.1  19.5  79.9  995.20  1608
2024-07-22 15:22 -99.0 -99.0   -99  23.0  19.4  80.2  995.20  1608
2024-07-22 15:20 -99.0 -99.0   -99  23.0  19.5  80.4  995.20  1609
2024-07-22 15:18 -99.0 -99.0   -99  22.9  19.5  81.3  995.20  1479
2024-07-22 15:16 -99.0 -99.0   -99  22.9  19.4  80.7  995.20  1109
2024-07-22 15:14 -99.0 -99.0   -99  22.9  19.4  80.3  995.20   965
2024-07-22 15:12 -99.0 -99.0   -99  22.8  19.4  81.0  995.20   768
2024-07-22 15:10 -99.0 -99.0   -99  22.9  19.5  80.8  995.20   832
2024-07-22 15:08 -99.0 -99.0   -99  22.8  19.3  80.8  995.20   865
2024-07-22 15:06 -99.0 -99.0   -99  23.0  19.2  79.5  995.20  1067
2024-07-22 15:04 -99.0 -99.0   -99  23.1  19.3  78.7  995.20  1034
2024-07-22 15:02 -99.0 -99.0   -99  23.1  19.2  78.5  995.20  1260
2024-07-22 15:00 -99.0 -99.0   -99  23.0  19.3  79.8  995.20  1600
2024-07-22 14:58 -99.0 -99.0   -99  22.9  19.3  79.9  995.20  1412
2024-07-22 14:56 -99.0 -99.0   -99  22.8  19.2  80.2  995.20  1617
2024-07-22 14:54 -99.0 -99.0   -99  22.8  19.2  79.9  995.20  1635
2024-07-22 14:52 -99.0 -99.0   -99  22.9  19.2  79.5  995.20  1635
2024-07-22 14:50 -99.0 -99.0   -99  22.9  19.1  79.0  995.20  1637
2024-07-22 14:48 -99.0 -99.0   -99  23.0  19.1  78.7  995.20  1641
2024-07-22 14:46 -99.0 -99.0   -99  23.1  19.1  78.4  995.20  1636
2024-07-22 14:44 -99.0 -99.0   -99  22.9  18.8  77.8  995.20  1635
2024-07-22 14:42 -99.0 -99.0   -99  22.9  18.8  77.5  995.20  1635
2024-07-22 14:40 -99.0 -99.0   -99  23.0  19.1  78.8  995.20  1638
2024-07-22 14:38 -99.0 -99.0   -99  22.9  19.2  79.6  995.20  1638
2024-07-22 14:36 -99.0 -99.0   -99  22.8  19.2  80.2  995.20  1638
2024-07-22 14:34 -99.0 -99.0   -99  22.7  19.1  80.2  995.20  1635
2024-07-22 14:32 -99.0 -99.0   -99  22.7  19.1  80.3  995.20  1633
2024-07-22 14:30 -99.0 -99.0   -99  22.8  19.1  80.0  995.20  1635
2024-07-22 14:28 -99.0 -99.0   -99  22.8  19.1  79.4  995.20  1637
2024-07-22 14:26 -99.0 -99.0   -99  22.8  18.9  79.0  995.20  1638
2024-07-22 14:24 -99.0 -99.0   -99  22.8  19.0  79.4  995.20  1637
2024-07-22 14:22 -99.0 -99.0   -99  22.8  18.9  78.9  995.20  1635
2024-07-22 14:20 -99.0 -99.0   -99  22.8  19.0  79.1  995.20  1634
2024-07-22 14:18 -99.0 -99.0   -99  22.8  18.8  78.1  995.20  1635
2024-07-22 14:16 -99.0 -99.0   -99  22.6  19.0  79.7  995.20  1635
2024-07-22 14:14 -99.0 -99.0   -99  22.7  18.8  78.8  995.20  1637
2024-07-22 14:12 -99.0 -99.0   -99  22.8  18.8  78.2  995.30  1637
2024-07-22 14:10 -99.0 -99.0   -99  22.7  18.8  78.6  995.40  1632
2024-07-22 14:08 -99.0 -99.0   -99  22.7  18.9  78.9  995.40  1630
2024-07-22 14:06 -99.0 -99.0   -99  22.7  18.6  77.5  995.40  1635
2024-07-22 14:04 -99.0 -99.0   -99  22.7  18.4  76.9  995.40  1634
2024-07-22 14:02 -99.0 -99.0   -99  22.8  18.4  76.2  995.40  1642
2024-07-22 14:00 -99.0 -99.0   -99  22.8  18.3  75.7  995.40  1645
2024-07-22 13:58 -99.0 -99.0   -99  22.9  18.2  74.7  995.40  1650
2024-07-22 13:56 -99.0 -99.0   -99  22.9  18.2  75.0  995.40  1649
2024-07-22 13:54 -99.0 -99.0   -99  22.8  18.1  74.5  995.40  1645
2024-07-22 13:52 -99.0 -99.0   -99  22.8  18.0  74.6  995.40  1642
2024-07-22 13:50 -99.0 -99.0   -99  23.0  18.2  74.4  995.50  1650